createdAt,value
2019-06-27T00:01:49.787Z,88.20
2019-06-27T00:07:30.647Z,86.77
2019-06-27T00:13:11.654Z,86.47
2019-06-27T00:18:52.653Z,89.50
2019-06-27T00:24:18.151Z,89.60
2019-06-27T00:29:58.663Z,89.53
2019-06-27T00:35:39.352Z,86.63
2019-06-27T00:41:19.832Z,89.97
2019-06-27T00:46:51.601Z,87.03
2019-06-27T00:52:32.421Z,88.60
2019-06-27T00:58:13.488Z,86.93
2019-06-27T01:04:03.339Z,90.33
2019-06-27T01:09:52.781Z,88.70
2019-06-27T01:15:42.660Z,89.20
2019-06-27T01:21:32.718Z,89.37
2019-06-27T01:27:28.884Z,90.17
2019-06-27T01:33:04.746Z,89.97
2019-06-27T01:38:54.405Z,92.80
2019-06-27T01:44:43.274Z,92.90
2019-06-27T01:50:24.111Z,92.67
2019-06-27T01:56:04.741Z,89.17
2019-06-27T02:01:45.710Z,90.63
2019-06-27T02:07:26.630Z,92.63
2019-06-27T02:13:07.577Z,90.80
2019-06-27T02:18:48.126Z,90.90
2019-06-27T02:24:14.349Z,90.17
2019-06-27T02:29:54.962Z,93.43
2019-06-27T02:35:36.105Z,92.00
2019-06-27T02:41:17.028Z,93.27
2019-06-27T02:46:49.094Z,88.67
2019-06-27T02:52:30.077Z,89.93
2019-06-27T02:58:28.764Z,95.70
2019-06-27T03:03:38.514Z,90.07
2019-06-27T03:09:19.066Z,88.77
2019-06-27T03:14:59.869Z,88.43
2019-06-27T03:20:40.797Z,87.83
2019-06-27T03:26:21.408Z,98.93
2019-06-27T03:31:46.726Z,95.33
2019-06-27T03:37:27.505Z,91.97
2019-06-27T03:43:08.302Z,91.47
2019-06-27T03:48:49.373Z,89.70
2019-06-27T03:54:39.388Z,84.80
2019-06-27T04:00:31.873Z,81.37
2019-06-27T04:06:12.798Z,83.90
2019-06-27T04:11:53.799Z,87.10
2019-06-27T04:17:43.874Z,81.60
2019-06-27T04:23:33.724Z,85.30
2019-06-27T04:29:31.856Z,82.30
2019-06-27T04:34:56.930Z,82.17
2019-06-27T04:40:46.536Z,85.63
2019-06-27T04:46:36.443Z,78.97
2019-06-27T04:52:26.317Z,80.27
2019-06-27T04:58:15.755Z,78.07
2019-06-27T05:04:05.280Z,77.47
2019-06-27T05:09:46.016Z,77.43
2019-06-27T05:15:36.055Z,76.87
2019-06-27T05:21:25.732Z,79.43
2019-06-27T05:27:15.406Z,78.50
2019-06-27T05:32:56.503Z,78.17
2019-06-27T05:38:37.275Z,77.67
2019-06-27T05:44:26.968Z,77.07
2019-06-27T05:50:07.509Z,74.77
2019-06-27T05:55:57.437Z,83.10
2019-06-27T06:01:38.020Z,76.20
2019-06-27T06:07:18.863Z,78.23
2019-06-27T06:12:59.588Z,76.63
2019-06-27T06:18:40.066Z,78.17
2019-06-27T06:24:20.822Z,77.47
2019-06-27T06:30:01.617Z,77.07
2019-06-27T06:35:42.744Z,82.07
2019-06-27T06:41:23.537Z,78.30
2019-06-27T06:47:13.433Z,89.33
2019-06-27T06:52:54.127Z,85.83
2019-06-27T06:58:34.841Z,75.87
2019-06-27T07:04:15.568Z,82.77
2019-06-27T07:09:56.047Z,77.17
2019-06-27T07:15:36.510Z,79.33
2019-06-27T07:21:17.447Z,76.30
2019-06-27T07:26:58.038Z,77.03
2019-06-27T07:32:38.932Z,78.30
2019-06-27T07:38:19.474Z,82.97
2019-06-27T07:44:09.126Z,77.77
2019-06-27T07:49:50.041Z,75.07
2019-06-27T07:55:39.895Z,78.13
2019-06-27T08:01:35.215Z,77.60
2019-06-27T08:07:21.464Z,79.73
2019-06-27T08:13:11.597Z,75.33
2019-06-27T08:19:01.078Z,76.70
2019-06-27T08:24:51.080Z,74.03
2019-06-27T08:30:41.080Z,76.90
2019-06-27T08:36:30.547Z,77.20
2019-06-27T08:42:11.131Z,71.90
2019-06-27T08:47:51.969Z,79.13
2019-06-27T08:53:41.676Z,73.97
2019-06-27T08:59:31.853Z,82.30
2019-06-27T09:05:12.691Z,77.10
2019-06-27T09:10:53.689Z,74.40
2019-06-27T09:16:34.470Z,74.07
2019-06-27T09:22:15.373Z,75.40
2019-06-27T09:28:04.880Z,73.80
2019-06-27T09:33:45.901Z,74.87
2019-06-27T09:39:35.794Z,74.57
2019-06-27T09:45:16.742Z,80.70
2019-06-27T09:50:57.592Z,74.73
2019-06-27T09:56:47.452Z,75.90
2019-06-27T10:02:41.833Z,76.27
2019-06-27T10:08:28.172Z,76.57
2019-06-27T10:14:17.866Z,81.97
2019-06-27T10:20:07.329Z,75.87
2019-06-27T10:25:57.187Z,78.93
2019-06-27T10:31:47.040Z,80.50
2019-06-27T10:37:27.542Z,77.90
2019-06-27T10:43:17.611Z,78.27
2019-06-27T10:48:58.507Z,79.40
2019-06-27T10:54:24.302Z,80.07
2019-06-27T11:00:05.353Z,79.17
2019-06-27T11:05:46.018Z,77.17
2019-06-27T11:11:35.890Z,81.30
2019-06-27T11:17:16.522Z,77.33
2019-06-27T11:22:57.360Z,83.90
2019-06-27T11:28:38.520Z,79.90
2019-06-27T11:34:19.546Z,78.27
2019-06-27T11:40:00.368Z,81.03
2019-06-27T11:45:41.034Z,75.07
2019-06-27T11:51:13.169Z,79.67
2019-06-27T11:56:53.693Z,77.00
2019-06-27T12:02:43.443Z,78.83
2019-06-27T12:08:32.947Z,82.80
2019-06-27T12:14:13.630Z,81.90
2019-06-27T12:19:54.593Z,87.83
2019-06-27T12:25:35.193Z,82.83
2019-06-27T12:31:20.606Z,77.30
2019-06-27T12:36:58.453Z,82.50
2019-06-27T12:42:48.441Z,80.97
2019-06-27T12:48:28.956Z,81.17
2019-06-27T12:53:56.052Z,77.87
2019-06-27T12:59:36.910Z,77.77
2019-06-27T13:05:20.544Z,76.47
2019-06-27T13:11:00.184Z,79.07
2019-06-27T13:16:41.063Z,82.87
2019-06-27T13:22:21.808Z,77.30
2019-06-27T13:28:02.556Z,76.93
2019-06-27T13:33:43.525Z,79.60
2019-06-27T13:39:24.165Z,80.20
2019-06-27T13:45:14.180Z,79.80
2019-06-27T13:51:04.105Z,75.27
2019-06-27T13:56:45.146Z,80.00
2019-06-27T14:02:34.905Z,77.93
2019-06-27T14:08:26.331Z,85.23
2019-06-27T14:14:11.215Z,82.17
2019-06-27T14:19:50.880Z,84.30
2019-06-27T14:25:31.541Z,85.70
2019-06-27T14:31:21.250Z,89.20
2019-06-27T14:37:11.010Z,81.57
2019-06-27T14:43:00.739Z,81.77
2019-06-27T14:48:41.274Z,86.17
2019-06-27T14:54:13.307Z,83.10
2019-06-27T14:59:54.205Z,83.47
2019-06-27T15:05:43.784Z,89.03
2019-06-27T15:11:33.327Z,83.23
2019-06-27T15:17:23.139Z,83.53
2019-06-27T15:22:40.668Z,84.77
2019-06-27T15:28:33.282Z,80.40
2019-06-27T15:34:12.825Z,80.20
2019-06-27T15:39:53.883Z,87.03
2019-06-27T15:45:43.917Z,88.40
2019-06-27T15:51:24.628Z,84.63
2019-06-27T15:57:05.794Z,82.57
2019-06-27T16:02:46.626Z,89.00
2019-06-27T16:08:15.671Z,80.50
2019-06-27T16:13:56.563Z,81.53
2019-06-27T16:19:46.254Z,82.87
2019-06-27T16:25:27.145Z,88.70
2019-06-27T16:31:07.613Z,78.47
2019-06-27T16:36:48.398Z,83.00
2019-06-27T16:42:37.652Z,85.70
2019-06-27T16:48:27.303Z,87.33
2019-06-27T16:53:58.941Z,83.50
2019-06-27T16:59:39.922Z,88.80
2019-06-27T17:05:20.665Z,85.07
2019-06-27T17:10:46.225Z,84.07
2019-06-27T17:16:27.426Z,87.93
2019-06-27T17:22:08.174Z,83.40
2019-06-27T17:27:48.783Z,84.53
2019-06-27T17:33:29.422Z,86.33
2019-06-27T17:39:10.452Z,84.00
2019-06-27T17:44:51.290Z,82.50
2019-06-27T17:50:31.874Z,83.20
2019-06-27T17:56:12.462Z,84.77
2019-06-27T18:02:02.255Z,82.50
2019-06-27T18:07:43.106Z,83.60
2019-06-27T18:13:15.205Z,84.70
2019-06-27T18:19:04.780Z,86.87
2019-06-27T18:24:45.832Z,84.17
2019-06-27T18:30:35.608Z,82.37
2019-06-27T18:36:16.406Z,83.27
2019-06-27T18:41:57.314Z,85.50
2019-06-27T18:47:38.467Z,85.37
2019-06-27T18:53:28.144Z,86.77
2019-06-27T18:59:08.975Z,83.83
2019-06-27T19:04:49.661Z,87.47
2019-06-27T19:10:30.671Z,85.97
2019-06-27T19:16:02.512Z,89.80
2019-06-27T19:22:01.101Z,85.40
2019-06-27T19:27:42.041Z,87.10
2019-06-27T19:33:22.579Z,84.87
2019-06-27T19:39:03.701Z,89.53
2019-06-27T19:44:44.652Z,89.10
2019-06-27T19:50:25.329Z,90.20
2019-06-27T19:55:57.262Z,85.60
2019-06-27T20:01:47.231Z,90.40
2019-06-27T20:07:36.585Z,86.60
2019-06-27T20:13:17.201Z,87.90
2019-06-27T20:18:57.964Z,87.43
2019-06-27T20:24:48.285Z,89.07
2019-06-27T20:30:38.147Z,89.77
2019-06-27T20:36:19.038Z,90.60
2019-06-27T20:42:08.812Z,88.57
2019-06-27T20:47:58.057Z,89.67
2019-06-27T20:53:39.322Z,90.13
2019-06-27T20:59:28.837Z,91.77
2019-06-27T21:05:19.037Z,87.27
2019-06-27T21:11:09.032Z,89.03
2019-06-27T21:16:49.853Z,90.83
2019-06-27T21:22:30.870Z,85.63
2019-06-27T21:28:21.025Z,86.17
2019-06-27T21:34:01.994Z,93.47
2019-06-27T21:39:42.626Z,91.10
2019-06-27T21:45:23.485Z,89.93
2019-06-27T21:51:13.429Z,88.87
2019-06-27T21:56:54.210Z,94.17
2019-06-27T22:02:43.583Z,96.57
2019-06-27T22:08:33.553Z,91.60
2019-06-27T22:14:22.981Z,97.00
2019-06-27T22:20:14.412Z,94.57
2019-06-27T22:25:55.298Z,91.10
2019-06-27T22:31:45.275Z,92.73
2019-06-27T22:37:33.729Z,94.00
2019-06-27T22:43:32.419Z,93.20
2019-06-27T22:49:21.445Z,91.87
2019-06-27T22:55:02.806Z,100.10
2019-06-27T23:00:52.775Z,90.27
2019-06-27T23:06:42.715Z,89.60
2019-06-27T23:12:32.523Z,87.87
2019-06-27T23:18:13.384Z,84.50
2019-06-27T23:23:53.977Z,81.27
2019-06-27T23:29:43.779Z,80.10
2019-06-27T23:35:33.449Z,92.33
2019-06-27T23:41:13.931Z,80.47
2019-06-27T23:46:54.551Z,80.83
2019-06-27T23:52:44.266Z,80.60
2019-06-27T23:58:24.780Z,82.90
